Time;durP1;ratioP1;P1;durP2;ratioP2;P2;SDS_P1;SDS_P2;PMS_P1;PMS_P2;Temp;Humidity;BMP_temperature;BMP_pressure;BME280_temperature;BME280_humidity;BME280_pressure;Samples;Min_cycle;Max_cycle;Signal;HPM_P1;HPM_P2
2021/09/25 00:02:04;;;;;;;9.05;2.70;;;;;;;17.77;100.00;101442.09;5065077;28;20351;-61
2021/09/25 00:04:29;;;;;;;7.38;2.67;;;;;;;17.86;100.00;101445.31;5066220;28;20032;-62
2021/09/25 00:06:55;;;;;;;6.93;2.50;;;;;;;17.86;100.00;101434.50;5068537;28;20117;-62
2021/09/25 00:09:21;;;;;;;5.53;2.15;;;;;;;17.90;100.00;101437.56;5086637;28;20051;-61
2021/09/25 00:11:47;;;;;;;7.63;2.63;;;;;;;17.97;100.00;101435.59;5083790;28;20492;-61
2021/09/25 00:14:13;;;;;;;7.33;2.50;;;;;;;17.93;100.00;101439.81;5048054;28;20050;-62
2021/09/25 00:16:38;;;;;;;8.25;3.30;;;;;;;17.90;100.00;101441.09;5085589;28;20028;-62
2021/09/25 00:19:04;;;;;;;12.85;2.58;;;;;;;17.96;100.00;101444.75;5067063;28;20044;-61
2021/09/25 00:21:30;;;;;;;10.40;2.95;;;;;;;17.95;100.00;101439.56;5063835;28;20490;-63
2021/09/25 00:23:56;;;;;;;6.47;2.72;;;;;;;17.98;100.00;101439.94;5058949;28;20461;-62
2021/09/25 00:26:23;;;;;;;6.70;2.92;;;;;;;17.91;100.00;101434.63;5077499;28;20063;-62
2021/09/25 00:28:50;;;;;;;6.83;3.13;;;;;;;17.87;100.00;101438.00;5060140;28;20126;-62
2021/09/25 00:31:16;;;;;;;8.43;2.87;;;;;;;17.97;100.00;101434.75;5076022;28;20020;-63
2021/09/25 00:33:42;;;;;;;9.43;2.67;;;;;;;17.89;100.00;101430.53;5075846;28;20043;-63
2021/09/25 00:36:07;;;;;;;6.57;3.08;;;;;;;17.88;100.00;101443.22;5079400;28;20096;-60
2021/09/25 00:38:36;;;;;;;6.68;3.95;;;;;;;17.81;100.00;101439.78;5080824;28;20449;-62
2021/09/25 00:41:03;;;;;;;10.43;3.07;;;;;;;17.87;100.00;101438.84;5079423;28;20093;-63
2021/09/25 00:43:28;;;;;;;7.40;3.10;;;;;;;17.82;100.00;101432.47;5078025;28;20112;-63
2021/09/25 00:45:54;;;;;;;5.32;2.70;;;;;;;17.87;100.00;101436.16;5060099;28;20131;-63
2021/09/25 00:48:19;;;;;;;7.75;3.42;;;;;;;17.84;100.00;101431.19;5056902;28;20041;-63
2021/09/25 00:50:45;;;;;;;7.57;3.20;;;;;;;17.87;100.00;101425.31;5057413;28;20044;-63
2021/09/25 00:53:11;;;;;;;7.95;3.33;;;;;;;17.81;100.00;101431.66;5074174;28;20043;-62
2021/09/25 00:55:36;;;;;;;7.18;3.50;;;;;;;17.73;100.00;101437.38;5056650;28;20040;-63
2021/09/25 00:58:05;;;;;;;8.63;3.47;;;;;;;17.75;100.00;101430.69;5055813;28;20245;-62
2021/09/25 01:00:33;;;;;;;10.07;3.73;;;;;;;17.67;100.00;101438.28;5073643;28;20037;-63
2021/09/25 01:02:58;;;;;;;6.77;3.07;;;;;;;17.67;100.00;101435.59;5073161;28;20029;-64
2021/09/25 01:05:24;;;;;;;5.28;2.70;;;;;;;17.71;100.00;101428.66;5073916;28;20044;-63
2021/09/25 01:07:51;;;;;;;10.50;3.92;;;;;;;17.70;100.00;101441.38;5074143;28;20082;-62
2021/09/25 01:10:18;;;;;;;8.77;3.63;;;;;;;17.57;100.00;101428.84;5073895;28;20048;-63
2021/09/25 01:12:45;;;;;;;11.77;4.07;;;;;;;17.53;100.00;101422.25;5073854;28;20028;-61
2021/09/25 01:15:12;;;;;;;8.97;4.53;;;;;;;17.56;100.00;101423.66;5055250;28;20032;-59
2021/09/25 01:17:37;;;;;;;13.40;4.73;;;;;;;17.54;100.00;101434.72;5072954;28;20028;-62
2021/09/25 01:20:05;;;;;;;12.88;4.60;;;;;;;17.49;100.00;101424.59;5055693;28;20051;-62
2021/09/25 01:22:30;;;;;;;12.00;5.27;;;;;;;17.54;100.00;101434.72;5073495;28;20040;-62
2021/09/25 01:24:56;;;;;;;10.70;4.95;;;;;;;17.52;100.00;101436.00;5073710;28;20040;-62
2021/09/25 01:27:22;;;;;;;17.15;6.25;;;;;;;17.63;100.00;101437.91;5073578;28;20514;-62
2021/09/25 01:29:48;;;;;;;12.52;4.82;;;;;;;17.43;100.00;101440.88;5055363;28;20062;-61
2021/09/25 01:32:15;;;;;;;12.13;6.17;;;;;;;17.50;100.00;101441.63;5071908;28;20044;-61
2021/09/25 01:34:40;;;;;;;;;;;;;;;17.49;100.00;101450.78;5073511;28;20106;-61
2021/09/25 01:37:06;;;;;;;12.70;5.30;;;;;;;17.46;100.00;101443.97;5073603;28;20341;-62
2021/09/25 01:39:32;;;;;;;10.38;5.28;;;;;;;17.53;100.00;101441.19;5072706;28;20040;-62
2021/09/25 01:42:01;;;;;;;9.27;5.75;;;;;;;17.45;100.00;101436.06;5073310;28;20461;-62
2021/09/25 01:44:27;;;;;;;11.43;5.07;;;;;;;17.44;100.00;101442.53;5054905;28;20047;-62
2021/09/25 01:46:54;;;;;;;12.05;5.97;;;;;;;17.38;100.00;101440.75;5072151;28;20044;-61
2021/09/25 01:49:21;;;;;;;13.97;6.37;;;;;;;17.40;100.00;101441.34;5054223;28;20032;-61
2021/09/25 01:51:46;;;;;;;19.52;6.25;;;;;;;17.45;100.00;101445.03;5072829;28;20044;-61
2021/09/25 01:54:15;;;;;;;16.27;6.68;;;;;;;17.38;100.00;101432.63;5055315;28;20036;-62
2021/09/25 01:56:40;;;;;;;14.77;6.50;;;;;;;17.39;100.00;101434.28;5073111;28;20043;-62
2021/09/25 01:59:06;;;;;;;12.98;6.85;;;;;;;17.39;100.00;101435.09;5072772;28;20084;-62
2021/09/25 02:01:32;;;;;;;13.35;5.68;;;;;;;17.43;100.00;101435.47;5072187;28;20044;-60
2021/09/25 02:03:58;;;;;;;10.75;6.20;;;;;;;17.43;100.00;101430.06;5071443;28;20044;-62
2021/09/25 02:06:23;;;;;;;16.98;7.40;;;;;;;17.48;100.00;101438.31;5072870;28;20530;-63
2021/09/25 02:08:49;;;;;;;13.82;6.45;;;;;;;17.38;100.00;101435.34;5073341;28;20053;-62
2021/09/25 02:11:14;;;;;;;14.10;6.43;;;;;;;17.34;100.00;101441.19;5072808;28;20120;-62
2021/09/25 02:13:41;;;;;;;12.40;6.15;;;;;;;17.48;100.00;101438.31;5071903;28;20131;-62
2021/09/25 02:16:06;;;;;;;;;;;;;;;17.23;100.00;101439.25;5053960;28;20055;-60
2021/09/25 02:18:32;;;;;;;14.47;7.47;;;;;;;17.24;100.00;101438.19;5071973;28;20364;-61
2021/09/25 02:20:57;;;;;;;13.50;6.53;;;;;;;17.22;100.00;101431.38;5072722;28;20045;-62
2021/09/25 02:23:23;;;;;;;15.73;7.00;;;;;;;17.29;100.00;101435.63;5072989;28;20048;-62
2021/09/25 02:25:49;;;;;;;15.40;7.20;;;;;;;17.18;100.00;101433.69;5072611;28;20041;-63
2021/09/25 02:28:14;;;;;;;17.77;7.07;;;;;;;17.22;100.00;101434.06;5081338;28;20036;-63
2021/09/25 02:30:40;;;;;;;17.58;7.18;;;;;;;17.06;100.00;101426.31;5092769;28;20054;-62
2021/09/25 02:33:06;;;;;;;15.48;7.70;;;;;;;17.02;100.00;101430.53;5093110;28;20114;-63
2021/09/25 02:35:31;;;;;;;14.85;7.82;;;;;;;16.97;100.00;101426.84;5074519;28;20036;-62
2021/09/25 02:37:57;;;;;;;16.70;8.63;;;;;;;16.97;100.00;101424.94;5092617;28;20119;-62
2021/09/25 02:40:23;;;;;;;20.25;8.00;;;;;;;17.03;100.00;101415.97;5092634;28;20064;-62
2021/09/25 02:42:50;;;;;;;22.10;9.03;;;;;;;17.09;100.00;101427.75;5092855;28;20059;-62
2021/09/25 02:45:16;;;;;;;19.17;10.00;;;;;;;17.00;100.00;101426.41;5092151;28;20044;-62
2021/09/25 02:47:43;;;;;;;23.77;8.13;;;;;;;17.07;100.00;101427.16;5056820;28;20353;-62
2021/09/25 02:50:11;;;;;;;17.47;8.87;;;;;;;17.04;100.00;101422.22;5074752;28;20056;-62
2021/09/25 02:52:37;;;;;;;22.30;9.77;;;;;;;17.01;100.00;101419.97;5074720;28;20035;-62
2021/09/25 02:55:03;;;;;;;;;;;;;;;16.95;100.00;101420.81;5093077;28;20433;-62
2021/09/25 02:57:29;;;;;;;23.60;10.17;;;;;;;16.88;100.00;101419.00;5092430;28;19958;-62
2021/09/25 02:59:54;;;;;;;20.45;9.48;;;;;;;16.97;100.00;101419.53;5092331;28;20044;-62
2021/09/25 03:02:20;;;;;;;19.20;9.88;;;;;;;17.16;100.00;101425.78;5073360;28;20381;-62
2021/09/25 03:04:45;;;;;;;19.35;10.18;;;;;;;18.62;100.00;101425.00;5092295;28;20549;-63
2021/09/25 03:07:11;;;;;;;20.85;9.93;;;;;;;18.49;100.00;101429.63;5092759;28;20040;-62
2021/09/25 03:09:36;;;;;;;18.20;9.90;;;;;;;18.59;100.00;101422.78;5074191;28;20044;-63
2021/09/25 03:12:02;;;;;;;20.83;10.35;;;;;;;18.74;100.00;101431.28;5092292;28;20396;-63
2021/09/25 03:14:28;;;;;;;20.77;10.75;;;;;;;17.45;100.00;101427.97;5045987;28;20048;-62
2021/09/25 03:16:53;;;;;;;18.85;10.52;;;;;;;18.52;100.00;101435.63;5075050;28;20040;-61
2021/09/25 03:19:19;;;;;;;24.58;11.27;;;;;;;17.43;100.00;101430.91;5072719;28;20031;-62
2021/09/25 03:21:45;;;;;;;24.48;11.63;;;;;;;17.22;100.00;101424.06;5077569;28;20054;-62
2021/09/25 03:24:11;;;;;;;19.65;10.45;;;;;;;16.90;100.00;101416.09;5077666;28;20044;-63
2021/09/25 03:26:37;;;;;;;23.15;12.15;;;;;;;16.95;100.00;101431.59;5077660;28;20032;-62
2021/09/25 03:29:03;;;;;;;20.65;11.40;;;;;;;16.92;100.00;101428.31;5077792;28;20035;-62
2021/09/25 03:31:28;;;;;;;22.85;10.27;;;;;;;16.88;100.00;101434.41;5095832;28;20124;-61
2021/09/25 03:33:54;;;;;;;22.13;11.35;;;;;;;16.89;100.00;101430.66;5094813;28;20040;-61
2021/09/25 03:36:20;;;;;;;18.48;10.75;;;;;;;16.90;100.00;101430.41;5077237;28;20062;-62
2021/09/25 03:38:45;;;;;;;20.42;11.32;;;;;;;16.86;100.00;101425.69;5084939;28;20106;-63
2021/09/25 03:41:11;;;;;;;20.95;10.73;;;;;;;16.88;100.00;101426.28;5075458;28;20044;-61
2021/09/25 03:43:36;;;;;;;32.30;11.77;;;;;;;16.95;100.00;101431.59;5057474;28;20032;-62
2021/09/25 03:46:02;;;;;;;21.17;10.15;;;;;;;16.80;100.00;101426.56;5075284;28;20404;-61
2021/09/25 03:48:27;;;;;;;23.98;10.45;;;;;;;16.84;100.00;101427.75;5057384;28;20044;-62
2021/09/25 03:50:53;;;;;;;29.55;11.77;;;;;;;16.77;100.00;101427.84;5077513;28;20040;-60
2021/09/25 03:53:20;;;;;;;22.42;10.52;;;;;;;17.73;100.00;101438.22;5066910;28;20400;-61
2021/09/25 03:55:46;;;;;;;23.97;12.10;;;;;;;18.17;100.00;101434.50;5082393;28;20037;-62
2021/09/25 03:58:11;;;;;;;19.55;11.30;;;;;;;18.25;100.00;101436.88;5066530;28;20031;-62
2021/09/25 04:00:42;;;;;;;23.58;11.13;;;;;;;17.44;100.00;101431.72;5065632;28;20422;-62
2021/09/25 04:03:12;;;;;;;27.17;11.33;;;;;;;16.87;100.00;101436.25;5081401;28;20124;-62
2021/09/25 04:05:38;;;;;;;24.03;11.60;;;;;;;16.86;100.00;101429.22;5062967;28;20123;-62
2021/09/25 04:08:04;;;;;;;26.87;11.43;;;;;;;16.69;100.00;101437.06;5074671;28;20087;-62
2021/09/25 04:10:30;;;;;;;22.20;11.00;;;;;;;16.68;100.00;101430.00;5074915;28;20049;-62
2021/09/25 04:12:55;;;;;;;24.23;12.20;;;;;;;16.73;100.00;101437.44;5075024;28;20040;-63
2021/09/25 04:15:22;;;;;;;22.92;11.88;;;;;;;16.81;100.00;101433.63;5040437;28;20029;-62
2021/09/25 04:17:49;;;;;;;24.47;11.77;;;;;;;16.72;100.00;101425.81;5072711;28;20408;-62
2021/09/25 04:20:15;;;;;;;24.30;11.97;;;;;;;16.71;100.00;101434.13;5074534;28;20062;-62
2021/09/25 04:22:40;;;;;;;17.67;10.60;;;;;;;16.76;100.00;101427.00;5074566;28;20020;-63
2021/09/25 04:25:07;;;;;;;20.55;11.07;;;;;;;16.78;100.00;101433.00;5074447;28;20032;-62
2021/09/25 04:27:32;;;;;;;27.85;12.68;;;;;;;16.75;100.00;101430.75;5073528;28;20036;-57
2021/09/25 04:29:59;;;;;;;23.48;11.65;;;;;;;16.76;100.00;101426.19;5057127;28;20051;-62
2021/09/25 04:32:25;;;;;;;23.10;12.23;;;;;;;16.81;100.00;101429.06;5056623;28;20040;-62
2021/09/25 04:34:51;;;;;;;19.80;10.93;;;;;;;16.83;100.00;101428.81;5056345;28;20036;-62
2021/09/25 04:37:17;;;;;;;24.13;12.00;;;;;;;16.75;100.00;101427.25;5074267;28;20495;-61
2021/09/25 04:39:42;;;;;;;23.83;11.50;;;;;;;16.77;100.00;101433.25;5055997;28;20502;-62
2021/09/25 04:42:08;;;;;;;23.35;11.30;;;;;;;16.70;100.00;101427.91;5074154;28;20043;-61
2021/09/25 04:44:33;;;;;;;22.20;11.48;;;;;;;16.59;100.00;101431.31;5074392;28;20098;-62
2021/09/25 04:46:58;;;;;;;27.40;11.00;;;;;;;16.68;100.00;101430.00;5072672;28;20315;-60
2021/09/25 04:49:24;;;;;;;25.50;11.55;;;;;;;16.61;100.00;101431.94;5039223;28;20127;-61
2021/09/25 04:51:49;;;;;;;21.67;12.07;;;;;;;18.07;100.00;101426.94;5073648;28;20553;-62
2021/09/25 04:54:15;;;;;;;19.35;11.68;;;;;;;16.86;100.00;101410.28;5056166;28;20094;-62
2021/09/25 04:56:40;;;;;;;26.40;11.98;;;;;;;16.66;100.00;101413.19;5073458;28;20040;-63
2021/09/25 04:59:06;;;;;;;24.20;10.70;;;;;;;16.56;100.00;101400.22;5056021;28;20139;-62
2021/09/25 05:01:31;;;;;;;21.13;10.55;;;;;;;16.68;100.00;101403.00;5055695;28;20044;-61
2021/09/25 05:04:00;;;;;;;21.45;9.93;;;;;;;16.72;100.00;101414.16;5072716;28;20046;-63
2021/09/25 05:06:26;;;;;;;22.50;10.93;;;;;;;16.71;100.00;101417.91;5074229;28;20037;-62
2021/09/25 05:08:52;;;;;;;26.55;11.32;;;;;;;16.78;100.00;101427.63;5055662;28;20140;-62
2021/09/25 05:11:17;;;;;;;30.00;10.65;;;;;;;16.75;100.00;101424.56;5073922;28;20047;-62
2021/09/25 05:13:43;;;;;;;24.75;9.38;;;;;;;16.82;100.00;101424.47;5055356;28;20043;-62
2021/09/25 05:16:08;;;;;;;20.27;10.43;;;;;;;16.81;100.00;101422.81;5055521;28;20041;-61
2021/09/25 05:18:33;;;;;;;26.40;10.75;;;;;;;16.81;100.00;101431.75;5054829;28;20045;-63
2021/09/25 05:20:59;;;;;;;21.60;10.30;;;;;;;16.81;100.00;101436.31;5073144;28;20032;-62
2021/09/25 05:23:25;;;;;;;23.45;10.88;;;;;;;16.75;100.00;101429.94;5073375;28;20396;-61
2021/09/25 05:25:51;;;;;;;;;;;;;;;16.76;100.00;101437.00;5073454;28;20071;-62
2021/09/25 05:28:16;;;;;;;19.63;10.47;;;;;;;16.81;100.00;101433.63;5073158;28;19948;-62
2021/09/25 05:30:42;;;;;;;17.73;9.85;;;;;;;16.78;100.00;101433.00;5073016;28;20035;-63
2021/09/25 05:33:07;;;;;;;19.23;10.40;;;;;;;16.74;100.00;101439.91;5054655;28;20182;-63
2021/09/25 05:35:33;;;;;;;23.05;9.82;;;;;;;16.73;100.00;101443.66;5073165;28;20028;-62
2021/09/25 05:37:58;;;;;;;19.20;10.82;;;;;;;16.65;100.00;101446.66;5054589;28;20037;-63
2021/09/25 05:40:24;;;;;;;19.15;9.40;;;;;;;16.67;100.00;101449.97;5054887;28;20111;-63
2021/09/25 05:42:50;;;;;;;20.55;10.52;;;;;;;16.68;100.00;101445.38;5072961;28;20036;-62
2021/09/25 05:45:18;;;;;;;21.83;10.65;;;;;;;16.76;100.00;101451.31;5073294;28;20040;-62
2021/09/25 05:47:44;;;;;;;20.17;9.83;;;;;;;16.76;100.00;101453.22;5071417;28;20052;-61
2021/09/25 05:50:12;;;;;;;20.50;9.48;;;;;;;16.81;100.00;101449.81;5073280;28;20048;-62
2021/09/25 05:52:37;;;;;;;19.43;9.83;;;;;;;16.75;100.00;101444.25;5073242;28;20098;-63
2021/09/25 05:55:05;;;;;;;16.70;8.93;;;;;;;16.88;100.00;101443.31;5054808;28;20029;-62
2021/09/25 05:57:31;;;;;;;13.30;8.33;;;;;;;16.76;100.00;101447.81;5073121;28;20083;-63
2021/09/25 05:59:56;;;;;;;20.52;10.52;;;;;;;16.78;100.00;101457.31;5072868;28;20075;-62
2021/09/25 06:02:21;;;;;;;19.85;9.75;;;;;;;16.76;100.00;101454.03;5071879;28;20457;-62
2021/09/25 06:04:47;;;;;;;23.60;10.25;;;;;;;16.79;100.00;101452.75;5073287;28;20428;-62
2021/09/25 06:07:13;;;;;;;22.85;9.55;;;;;;;16.78;100.00;101456.50;5072964;28;20059;-63
2021/09/25 06:09:41;;;;;;;24.23;10.35;;;;;;;16.77;100.00;101454.88;5073363;28;20037;-63
2021/09/25 06:12:07;;;;;;;19.43;9.40;;;;;;;16.84;100.00;101457.47;5055443;28;20045;-63
2021/09/25 06:14:32;;;;;;;20.40;9.25;;;;;;;16.84;100.00;101463.72;5087330;28;20051;-62
2021/09/25 06:16:58;;;;;;;23.17;10.23;;;;;;;16.81;100.00;101441.72;5056023;28;20124;-62
2021/09/25 06:19:23;;;;;;;16.85;9.68;;;;;;;16.83;100.00;101439.63;5093125;28;20475;-62
2021/09/25 06:21:49;;;;;;;18.50;10.93;;;;;;;16.81;100.00;101449.81;5054942;28;20058;-61
2021/09/25 06:24:14;;;;;;;15.93;9.55;;;;;;;16.80;100.00;101457.13;5054888;28;20040;-62
2021/09/25 06:26:40;;;;;;;22.98;10.55;;;;;;;16.92;100.00;101452.63;5053930;28;20089;-62
2021/09/25 06:29:06;;;;;;;19.65;10.70;;;;;;;16.89;100.00;101468.47;5072388;28;20037;-62
2021/09/25 06:31:33;;;;;;;23.42;12.40;;;;;;;16.95;100.00;101447.81;5073337;28;20393;-62
2021/09/25 06:33:58;;;;;;;22.60;11.60;;;;;;;16.84;100.00;101452.06;5055001;28;20032;-62
2021/09/25 06:36:24;;;;;;;21.08;10.95;;;;;;;16.92;100.00;101457.22;5054654;28;20041;-62
2021/09/25 06:38:50;;;;;;;24.40;13.43;;;;;;;16.90;100.00;101462.81;5086928;28;20093;-61
2021/09/25 06:41:17;;;;;;;28.17;12.75;;;;;;;16.88;100.00;101456.81;5075855;28;20403;-63
2021/09/25 06:43:43;;;;;;;29.67;13.63;;;;;;;16.82;100.00;101457.72;5093706;28;20032;-62
2021/09/25 06:46:09;;;;;;;29.92;14.52;;;;;;;16.86;100.00;101460.81;5057977;28;20080;-61
2021/09/25 06:48:35;;;;;;;28.58;15.88;;;;;;;17.13;100.00;101463.28;5093275;28;20114;-63
2021/09/25 06:51:01;;;;;;;28.83;15.18;;;;;;;16.94;100.00;101455.09;5078406;28;20058;-64
2021/09/25 06:53:26;;;;;;;32.25;16.00;;;;;;;16.89;100.00;101453.06;5097292;28;20431;-63
2021/09/25 06:55:52;;;;;;;22.58;13.98;;;;;;;17.16;100.00;101460.13;5079000;28;20044;-61
2021/09/25 06:58:17;;;;;;;25.15;12.63;;;;;;;17.09;100.00;101456.66;5079113;28;20460;-62
2021/09/25 07:00:47;;;;;;;34.10;14.10;;;;;;;16.94;100.00;101455.09;5079099;28;20028;-62
2021/09/25 07:03:13;;;;;;;26.80;13.57;;;;;;;16.86;100.00;101455.41;5062106;28;20066;-62
2021/09/25 07:05:39;;;;;;;22.87;12.23;;;;;;;16.94;100.00;101460.50;5096926;28;20028;-62
2021/09/25 07:08:05;;;;;;;26.77;12.45;;;;;;;16.94;100.00;101468.63;5096225;28;20518;-63
2021/09/25 07:10:30;;;;;;;30.80;13.52;;;;;;;16.97;100.00;101461.94;5079252;28;20039;-63
2021/09/25 07:12:56;;;;;;;24.90;13.32;;;;;;;17.04;100.00;101460.03;5079130;28;20047;-63
2021/09/25 07:15:21;;;;;;;26.35;12.65;;;;;;;17.08;100.00;101465.81;5097688;28;20028;-61
2021/09/25 07:17:47;;;;;;;24.48;14.27;;;;;;;17.12;100.00;101470.53;5081030;28;20040;-62
2021/09/25 07:20:15;;;;;;;26.33;14.45;;;;;;;17.13;100.00;101471.38;5098205;28;20495;-63
2021/09/25 07:22:41;;;;;;;31.20;16.17;;;;;;;17.10;100.00;101474.53;5079398;28;20051;-62
2021/09/25 07:25:07;;;;;;;29.38;13.20;;;;;;;17.05;100.00;101472.50;5077878;28;20032;-60
2021/09/25 07:27:33;;;;;;;24.63;13.93;;;;;;;17.16;100.00;101479.84;5094455;28;20051;-62
2021/09/25 07:29:58;;;;;;;26.75;13.20;;;;;;;17.13;100.00;101484.88;5061222;28;20404;-62
2021/09/25 07:32:24;;;;;;;26.27;11.88;;;;;;;17.15;100.00;101488.19;5061724;28;20028;-63
2021/09/25 07:34:49;;;;;;;26.35;13.30;;;;;;;17.24;100.00;101481.44;5078580;28;20160;-63
2021/09/25 07:37:15;;;;;;;27.40;12.55;;;;;;;17.30;100.00;101491.38;5078084;28;20044;-63
2021/09/25 07:39:41;;;;;;;24.13;13.60;;;;;;;17.29;100.00;101500.50;5095711;28;20487;-63
2021/09/25 07:42:07;;;;;;;26.60;11.20;;;;;;;17.30;100.00;101504.88;5078072;28;20131;-63
2021/09/25 07:44:34;;;;;;;22.58;10.93;;;;;;;17.31;100.00;101501.13;5096282;28;20051;-62
2021/09/25 07:47:00;;;;;;;19.87;10.53;;;;;;;17.40;100.00;101500.81;5095232;28;20071;-61
2021/09/25 07:49:26;;;;;;;28.08;11.25;;;;;;;17.57;100.00;101506.44;5096084;28;20027;-63
2021/09/25 07:51:52;;;;;;;;;;;;;;;17.44;100.00;101516.38;5096503;28;20044;-63
2021/09/25 07:54:18;;;;;;;19.30;10.60;;;;;;;17.35;100.00;101506.88;5095728;28;19957;-62
2021/09/25 07:56:43;;;;;;;20.20;10.00;;;;;;;18.41;100.00;101519.28;5095479;28;20036;-65
2021/09/25 07:59:09;;;;;;;21.38;9.93;;;;;;;18.12;100.00;101515.59;5095222;28;20040;-62
2021/09/25 08:01:35;;;;;;;18.10;10.35;;;;;;;17.71;100.00;101518.75;5070126;28;20032;-61
2021/09/25 08:04:00;;;;;;;22.35;10.48;;;;;;;17.66;100.00;101512.38;5084711;28;20510;-60
2021/09/25 08:06:26;;;;;;;21.95;10.23;;;;;;;17.75;100.00;101511.84;5053801;28;20071;-63
2021/09/25 08:08:53;;;;;;;24.43;13.53;;;;;;;17.82;100.00;101519.03;5066463;28;20120;-63
2021/09/25 08:11:19;;;;;;;22.00;12.40;;;;;;;17.80;100.00;101521.16;5083240;28;20134;-63
2021/09/25 08:13:44;;;;;;;24.25;11.40;;;;;;;17.88;100.00;101520.88;5083711;28;20496;-63
2021/09/25 08:16:10;;;;;;;20.33;11.52;;;;;;;17.85;100.00;101530.25;5083679;28;20152;-63
2021/09/25 08:18:36;;;;;;;27.73;16.17;;;;;;;17.78;100.00;101534.91;5083878;28;20369;-62
2021/09/25 08:21:02;;;;;;;23.70;12.45;;;;;;;17.68;100.00;101537.31;5084435;28;20073;-62
2021/09/25 08:23:27;;;;;;;24.33;13.63;;;;;;;17.75;100.00;101540.75;5060578;28;20036;-61
2021/09/25 08:25:53;;;;;;;28.33;15.25;;;;;;;17.72;100.00;101535.81;5069980;28;20040;-63
2021/09/25 08:28:19;;;;;;;33.28;14.73;;;;;;;17.89;100.00;101547.66;5082663;28;20041;-61
2021/09/25 08:30:45;;;;;;;;;;;;;;;17.86;100.00;101547.28;5066766;28;20037;-60
2021/09/25 08:33:10;;;;;;;25.13;14.33;;;;;;;17.82;100.00;101551.50;5077484;28;20007;-62
2021/09/25 08:35:36;;;;;;;24.63;12.15;;;;;;;17.77;100.00;101544.91;5056925;28;20052;-63
2021/09/25 08:38:02;;;;;;;28.67;14.55;;;;;;;17.71;100.00;101555.78;5048518;28;20036;-56
2021/09/25 08:40:28;;;;;;;27.85;13.15;;;;;;;17.77;100.00;101563.84;5084011;28;20032;-63
2021/09/25 08:42:54;;;;;;;20.40;10.77;;;;;;;17.80;100.00;101569.84;5084768;28;20028;-63
2021/09/25 08:45:21;;;;;;;22.88;11.27;;;;;;;17.84;100.00;101563.75;5082901;28;20052;-62
2021/09/25 08:47:47;;;;;;;16.20;9.37;;;;;;;17.80;100.00;101564.44;5083700;28;20032;-63
2021/09/25 08:50:14;;;;;;;16.60;9.27;;;;;;;17.75;100.00;101560.53;5094241;28;20088;-63
2021/09/25 08:52:41;;;;;;;22.77;10.27;;;;;;;17.87;100.00;101563.31;5094412;28;20192;-63
2021/09/25 08:55:08;;;;;;;21.07;10.60;;;;;;;17.89;100.00;101561.19;5094207;28;20028;-61
2021/09/25 08:57:35;;;;;;;16.40;8.47;;;;;;;17.92;100.00;101571.56;5094257;28;20158;-63
2021/09/25 09:00:29;;;;;;;21.33;9.50;;;;;;;17.99;100.00;101582.31;5076176;28;20032;-63
2021/09/25 09:02:55;;;;;;;19.67;9.83;;;;;;;18.02;100.00;101573.75;5093830;28;20048;-60
2021/09/25 09:05:31;;;;;;;22.75;10.88;;;;;;;18.01;100.00;101577.53;5088432;28;20081;-64
2021/09/25 09:08:01;;;;;;;20.93;9.60;;;;;;;18.18;100.00;101579.63;5093886;28;20044;-63
2021/09/25 09:10:32;;;;;;;21.77;10.63;;;;;;;18.23;100.00;101574.34;5076065;28;20046;-63
2021/09/25 09:12:58;;;;;;;19.90;11.00;;;;;;;18.26;100.00;101583.91;5092830;28;20089;-63
2021/09/25 09:15:33;;;;;;;27.10;13.05;;;;;;;18.24;100.00;101586.81;5077997;28;20115;-63
2021/09/25 09:18:01;;;;;;;20.67;10.40;;;;;;;18.18;100.00;101582.31;5085385;28;20173;-62
2021/09/25 09:20:31;;;;;;;25.23;11.70;;;;;;;18.30;100.00;101585.09;5072678;28;20095;-63
2021/09/25 09:23:19;;;;;;;21.60;12.03;;;;;;;18.33;100.00;101574.59;5094070;28;20043;-63
2021/09/25 09:25:45;;;;;;;24.47;12.97;;;;;;;18.53;100.00;101575.38;5093626;28;20120;-62
2021/09/25 09:28:22;;;;;;;25.40;14.00;;;;;;;18.57;100.00;101576.56;5075758;28;20043;-63
2021/09/25 09:30:49;;;;;;;27.33;12.27;;;;;;;18.66;100.00;101583.31;5073921;28;20094;-63
2021/09/25 09:33:34;;;;;;;24.50;12.50;;;;;;;18.71;100.00;101591.59;5072988;28;20039;-63
2021/09/25 09:36:16;;;;;;;29.33;14.93;;;;;;;18.66;100.00;101588.72;5055019;28;20101;-64
2021/09/25 09:38:53;;;;;;;30.47;16.57;;;;;;;18.65;100.00;101595.19;5073463;28;20059;-63
2021/09/25 09:41:28;;;;;;;30.05;15.35;;;;;;;18.74;100.00;101580.28;5054762;28;20043;-62
2021/09/25 09:43:57;;;;;;;29.43;14.23;;;;;;;18.75;100.00;101590.06;5057969;28;20036;-64
2021/09/25 09:46:43;;;;;;;41.47;21.27;;;;;;;18.79;100.00;101593.09;5064630;28;20024;-62
2021/09/25 09:49:15;;;;;;;67.10;34.70;;;;;;;18.98;100.00;101583.06;5073084;28;20036;-63
2021/09/25 09:51:48;;;;;;;31.40;17.33;;;;;;;19.00;100.00;101586.34;5073495;28;20040;-63
2021/09/25 09:54:29;;;;;;;24.73;12.50;;;;;;;19.27;100.00;101580.47;5055166;28;20036;-62
2021/09/25 09:56:58;;;;;;;23.00;12.57;;;;;;;19.24;100.00;101594.50;5073266;28;20060;-63
2021/09/25 09:59:24;;;;;;;24.33;11.80;;;;;;;19.27;100.00;101593.22;5072558;28;20024;-63
2021/09/25 10:01:50;;;;;;;23.93;12.80;;;;;;;19.28;100.00;101608.44;5073391;28;20033;-64
2021/09/25 10:04:17;;;;;;;20.58;11.98;;;;;;;19.37;100.00;101603.44;5072731;28;20033;-62
2021/09/25 10:06:44;;;;;;;24.17;12.53;;;;;;;19.32;100.00;101594.13;5072689;28;20480;-63
2021/09/25 10:09:18;;;;;;;20.87;10.63;;;;;;;19.45;100.00;101595.78;5073012;28;20043;-63
2021/09/25 10:11:49;;;;;;;30.70;13.30;;;;;;;19.63;100.00;101597.56;5072875;28;20510;-62
2021/09/25 10:14:18;;;;;;;24.93;11.83;;;;;;;19.51;100.00;101604.88;5054745;28;20037;-63
2021/09/25 10:16:45;;;;;;;23.13;12.43;;;;;;;19.62;100.00;101598.63;5084524;28;20503;-63
2021/09/25 10:19:13;;;;;;;25.27;13.43;;;;;;;19.84;100.00;101602.59;5054159;28;20037;-63
2021/09/25 10:21:39;;;;;;;22.17;13.17;;;;;;;19.69;100.00;101600.38;5054606;28;20028;-63
2021/09/25 10:24:22;;;;;;;27.63;13.75;;;;;;;19.91;100.00;101593.28;5072063;28;20532;-63
2021/09/25 10:26:48;;;;;;;26.87;13.47;;;;;;;20.14;100.00;101596.16;5073076;28;20074;-63
2021/09/25 10:29:20;;;;;;;27.08;13.68;;;;;;;20.20;100.00;101597.94;5055091;28;20119;-64
2021/09/25 10:31:46;;;;;;;23.33;12.40;;;;;;;20.55;100.00;101590.69;5054880;28;20476;-63
2021/09/25 10:34:32;;;;;;;31.70;13.88;;;;;;;20.77;100.00;101590.78;5073597;28;20024;-64
2021/09/25 10:36:58;;;;;;;23.80;14.10;;;;;;;20.73;100.00;101597.78;5055420;28;20084;-65
2021/09/25 10:39:36;;;;;;;26.60;13.97;;;;;;;20.97;100.00;101582.16;5072745;28;20315;-64
2021/09/25 10:42:15;;;;;;;27.70;13.23;;;;;;;21.17;100.00;101597.16;5092297;28;20032;-62
2021/09/25 10:44:42;;;;;;;25.93;14.77;;;;;;;21.09;100.00;101595.66;5074630;28;20040;-63
2021/09/25 10:47:17;;;;;;;27.23;14.40;;;;;;;21.06;100.00;101588.84;5093024;28;20529;-63
2021/09/25 10:49:56;;;;;;;25.07;13.00;;;;;;;21.19;100.00;101590.41;5075161;28;20040;-63
2021/09/25 10:53:04;;;;;;;24.03;14.13;;;;;;;21.47;100.00;101582.38;5092381;28;20517;-62
2021/09/25 10:55:30;;;;;;;27.17;13.68;;;;;;;22.27;100.00;101578.44;5092398;28;20097;-64
2021/09/25 10:58:25;;;;;;;27.38;14.02;;;;;;;21.67;100.00;101575.56;5092937;28;20469;-63
2021/09/25 11:00:56;;;;;;;24.07;14.30;;;;;;;21.56;100.00;101580.00;5070878;28;20083;-63
2021/09/25 11:03:40;;;;;;;33.13;14.97;;;;;;;21.54;100.00;101580.28;5057580;28;20051;-62
2021/09/25 11:06:10;;;;;;;26.77;13.97;;;;;;;21.85;100.00;101569.00;5092728;28;20035;-63
2021/09/25 11:08:37;;;;;;;28.93;14.67;;;;;;;22.27;100.00;101575.72;5092592;28;20048;-63